Weather observations for the past three days for
University Airport
Imperial (Metric)
Date Time (pdt) Wind (mph) Vis. (mi.) Weather Sky Cond. Temperature (ºF) Relative Humidity Wind Chill (°F) Heat Index (°F) Pressure Precipitation (in)
Air Dwpt 6 hour altimeter (in) sea level (mb) 1 hr 3 hr 6 hr
Max. Min.
05 20:35 S 9 10.00 NULL NULL 71.6 44.6 38% 29.91 0.0
05 20:15 S 9 10.00 NULL NULL 71.6 44.6 38% 29.9 0.0
05 19:55 S 8 10.00 NULL NULL 73.4 44.6 36% 29.9 0.0
05 19:35 S 8 10.00 NULL NULL 75.2 44.6 34% 77 29.9 0.0
05 19:15 S 8 10.00 NULL NULL 75.2 46.4 36% 77 29.9 0.0
05 18:55 SW 10 10.00 NULL NULL 77 46.4 34% 78 29.9 0.0
05 18:35 SW 10 10.00 NULL NULL 80.6 46.4 30% 80 29.9 0.0
05 18:15 SW 13 G 17 10.00 NULL NULL 80.6 46.4 30% 80 29.9 0.0
05 17:55 SW 9 10.00 NULL NULL 82.4 42.8 25% 80 29.89 0.0
05 17:35 S 6 10.00 NULL NULL 82.4 41 23% 80 29.9 0.0
05 17:15 S 9 10.00 NULL NULL 82.4 41 23% 80 29.89 0.0
05 16:55 SW 7 10.00 NULL NULL 82.4 39.2 21% 80 29.9 0.0
05 16:35 S 7 10.00 NULL NULL 82.4 39.2 21% 80 29.9 0.0
05 16:15 S 7 10.00 NULL NULL 82.4 41 23% 80 29.9 0.0
05 15:55 SW 3 10.00 NULL NULL 82.4 42.8 25% 80 29.91 0.0
05 15:35 Calm 10.00 NULL NULL 80.6 44.6 28% 79 29.92 0.0
05 15:15 S 8 10.00 NULL NULL 80.6 44.6 28% 79 29.92 0.0
05 14:55 S 5 10.00 NULL NULL 80.6 44.6 28% 79 29.93 0.0
05 14:35 S 5 9.00 NULL NULL 80.6 46.4 30% 80 29.93 0.0
05 14:15 Calm 10.00 NULL NULL 78.8 44.6 30% 79 29.94 0.0
05 13:55 Calm 10.00 NULL NULL 77 46.4 34% 78 29.94 0.0
05 13:35 Calm 10.00 NULL NULL 77 46.4 34% 78 29.95 0.0
05 13:15 Calm 10.00 NULL NULL 75.2 46.4 36% 77 29.95 0.0
05 12:55 Calm 9.00 NULL NULL 77 48.2 36% 78 29.96 0.0
05 10:55 Calm 10.00 NULL NULL 68 53.6 60% 29.98 0.0
05 10:35 Calm 10.00 NULL NULL 66.2 55.4 68% 29.97 0.0
05 10:15 Calm 10.00 NULL NULL 64.4 55.4 73% 29.97 0.0
05 09:55 Calm 10.00 NULL NULL 62.6 55.4 77% 29.97 0.0
05 09:35 Calm 10.00 NULL NULL 60.8 55.4 83% 29.97 0.0
05 09:15 Calm 10.00 NULL NULL 57.2 57.2 100% 29.97 0.0
05 08:55 Calm 5.00 NULL NULL 55.4 55.4 100% 29.97 0.0
05 08:35 Calm 0.50 NULL NULL 53.6 53.6 100% 29.97 0.0
05 08:15 Calm 0.15 NULL NULL 53.6 53.6 100% 29.97 0.0
05 07:55 Calm 0.25 NULL NULL 50 50 100% 29.96 0.0
05 07:35 Calm 0.15 NULL NULL 48.2 48.2 100% 29.97 0.0
05 07:15 Calm 5.00 NULL NULL 48.2 48.2 100% 29.96 0.0
05 06:55 Calm 10.00 NULL NULL 48.2 48.2 100% 29.95 0.0
05 06:35 Calm 9.00 NULL NULL 48.2 48.2 100% 29.95 0.0
05 06:15 Calm 10.00 NULL NULL 50 50 100% 29.95 0.0
05 05:55 Calm 10.00 NULL NULL 48.2 48.2 100% 29.94 0.0
05 05:35 Calm 10.00 NULL NULL 50 50 100% 29.94 0.0
05 05:15 Calm 10.00 NULL NULL 50 48.2 94% 29.94 0.0
05 04:55 Calm 10.00 NULL NULL 50 50 100% 29.94 0.0
05 04:35 Calm 8.00 NULL NULL 50 50 100% 29.94 0.0
05 04:15 Calm 10.00 NULL NULL 51.8 51.8 100% 29.94 0.0
05 03:55 Calm 10.00 NULL NULL 51.8 51.8 100% 29.94 0.0
05 03:35 Calm 10.00 NULL NULL 51.8 51.8 100% 29.94 0.0
05 03:15 Calm 10.00 NULL NULL 51.8 51.8 100% 29.95 0.0
05 02:55 Calm 10.00 NULL NULL 53.6 53.6 100% 29.95 0.0
05 02:35 Calm 10.00 NULL NULL 53.6 51.8 94% 29.95 0.0
05 02:15 Calm 10.00 NULL NULL 53.6 53.6 100% 29.95 0.0
05 01:55 Calm 10.00 NULL NULL 53.6 53.6 100% 29.95 0.0
05 01:35 Calm 10.00 NULL NULL 53.6 53.6 100% 29.95 0.0
05 01:15 Calm 10.00 NULL NULL 55.4 53.6 94% 29.95 0.0
05 00:55 Calm 10.00 NULL NULL 55.4 53.6 94% 29.94 0.0
05 00:35 Calm 10.00 NULL NULL 55.4 53.6 94% 29.94 0.0
05 00:15 Calm 10.00 NULL NULL 55.4 53.6 94% 29.94 0.0
04 23:55 Calm 10.00 NULL NULL 55.4 53.6 94% 29.93 0.0
04 23:35 Calm 10.00 NULL NULL 55.4 53.6 94% 29.93 0.0
04 23:15 Calm 10.00 NULL NULL 57.2 51.8 82% 29.93 0.0
04 22:55 Calm 10.00 NULL NULL 59 51.8 77% 29.93 0.0
04 22:35 Calm 10.00 NULL NULL 59 50 72% 29.93 0.0
04 22:15 Calm 10.00 NULL NULL 60.8 50 68% 29.94 0.0
04 21:55 Calm 10.00 NULL NULL 59 50 72% 29.94 0.0
04 21:35 Calm 10.00 NULL NULL 64.4 50 60% 29.94 0.0
04 21:15 Calm 10.00 NULL NULL 64.4 50 60% 29.93 0.0
04 20:55 Calm 10.00 NULL NULL 64.4 48.2 56% 29.93 0.0
04 20:35 S 5 10.00 NULL NULL 66.2 48.2 52% 29.92 0.0
04 20:15 S 6 10.00 NULL NULL 68 50 53% 29.91 0.0
04 19:55 S 7 10.00 NULL NULL 68 50 53% 29.91 0.0
04 19:35 S 8 10.00 NULL NULL 71.6 48.2 44% 29.91 0.0
04 19:15 S 10 10.00 NULL NULL 71.6 50 47% 29.9 0.0
04 18:55 S 10 10.00 NULL NULL 73.4 50 44% 29.9 0.0
04 18:35 S 8 10.00 NULL NULL 75.2 48.2 39% 77 29.9 0.0
04 18:15 S 10 10.00 NULL NULL 75.2 48.2 39% 77 29.9 0.0
04 17:55 Calm 10.00 NULL NULL 77 48.2 36% 78 29.9 0.0
04 17:35 SE 3 10.00 NULL NULL 77 48.2 36% 78 29.9 0.0
04 17:15 Calm 10.00 NULL NULL 77 48.2 36% 78 29.9 0.0
04 16:55 Calm 10.00 NULL NULL 75.2 48.2 39% 77 29.9 0.0
04 16:35 Calm 10.00 NULL NULL 77 46.4 34% 78 29.91 0.0
04 16:15 Calm 10.00 NULL NULL 77 48.2 36% 78 29.91 0.0
04 15:55 E 6 10.00 NULL NULL 75.2 48.2 39% 77 29.92 0.0
04 15:35 Calm 10.00 NULL NULL 75.2 46.4 36% 77 29.92 0.0
04 15:15 SW 5 10.00 NULL NULL 75.2 46.4 36% 77 29.93 0.0
04 14:55 Calm 10.00 NULL NULL 75.2 46.4 36% 77 29.93 0.0
04 14:35 SE 7 9.00 NULL NULL 75.2 46.4 36% 77 29.93 0.0
04 14:15 Calm 10.00 NULL NULL 73.4 48.2 41% 29.93 0.0
04 13:55 S 3 10.00 NULL NULL 73.4 48.2 41% 29.93 0.0
04 13:35 Calm 10.00 NULL NULL 73.4 48.2 41% 29.93 0.0
04 13:15 Calm 10.00 NULL NULL 71.6 46.4 41% 29.94 0.0
04 12:55 S 6 10.00 NULL NULL 73.4 48.2 41% 29.94 0.0
04 12:35 Calm 10.00 NULL NULL 73.4 50 44% 29.94 0.0
04 12:15 Calm 10.00 NULL NULL 69.8 50 50% 29.95 0.0
04 11:55 Calm 10.00 NULL NULL 71.6 50 47% 29.95 0.0
04 11:35 SE 3 10.00 NULL NULL 71.6 51.8 50% 29.95 0.0
04 11:15 Calm 10.00 NULL NULL 69.8 53.6 57% 29.95 0.0
04 10:55 Calm 10.00 NULL NULL 66.2 53.6 64% 29.95 0.0
04 10:35 Calm 9.00 NULL NULL 68 53.6 60% 29.95 0.0
04 10:15 N 5 10.00 NULL NULL 68 53.6 60% 29.95 0.0
04 09:55 Calm 10.00 NULL NULL 66.2 53.6 64% 29.94 0.0
04 09:25 Calm 10.00 NULL NULL 66.2 51.8 60% 29.94 0.0
04 09:15 Calm 10.00 NULL NULL 64.4 51.8 64% 29.94 0.0
04 04:25 Calm 10.00 NULL NULL 59 55.4 88% 29.88 0.0
04 04:15 Calm 10.00 NULL NULL 60.8 55.4 83% 29.88 0.0
04 03:25 Calm 10.00 NULL NULL 62.6 57.2 83% 29.87 0.0
04 03:15 Calm 10.00 NULL NULL 62.6 57.2 83% 29.87 0.0
04 02:25 Calm 10.00 NULL NULL 62.6 59 88% 29.87 0.0
04 02:15 Calm 10.00 NULL NULL 62.6 59 88% 29.87 0.0
04 01:25 Calm 10.00 NULL NULL 62.6 59 88% 29.87 0.0
04 01:15 Calm 10.00 NULL NULL 62.6 60.8 94% 29.87 0.0
04 00:25 Calm 10.00 NULL NULL 62.6 62.6 100% 29.87 0.0
04 00:15 Calm 10.00 NULL NULL 62.6 62.6 100% 29.87 0.0
03 23:25 Calm 10.00 NULL NULL 64.4 62.6 94% 29.87 0.0
03 23:15 Calm 10.00 NULL NULL 64.4 62.6 94% 29.86 0.0
03 22:25 Calm 10.00 NULL NULL 64.4 62.6 94% 29.87 0.0
03 22:15 Calm 10.00 NULL NULL 64.4 60.8 88% 29.88 0.0
03 21:25 Calm 10.00 NULL NULL 64.4 59 83% 29.88 0.0
03 21:15 Calm 10.00 NULL NULL 64.4 59 83% 29.87 0.0
03 20:25 SW 3 10.00 NULL NULL 66.2 57.2 73% 29.86 0.0
03 20:15 SW 7 10.00 NULL NULL 66.2 57.2 73% 29.86 0.0
03 19:25 Calm 10.00 NULL NULL 66.2 57.2 73% 29.87 0.0
03 19:15 W 6 10.00 NULL NULL 66.2 57.2 73% 29.87 0.0
03 18:25 W 9 10.00 NULL NULL 68 57.2 69% 29.87 0.0
03 18:15 W 7 10.00 NULL NULL 68 57.2 69% 29.87 0.0
03 17:25 SW 8 10.00 NULL NULL 68 62.6 83% 29.88 0.0
03 17:15 SW 10 G 17 10.00 NULL NULL 68 60.8 78% 29.88 0.0
03 16:25 SW 7 G 16 10.00 NULL NULL 71.6 59 65% 29.89 0.0
03 16:15 SW 12 G 20 10.00 NULL NULL 71.6 60.8 69% 29.89 0.0
03 15:25 SW 12 G 17 10.00 NULL NULL 71.6 59 65% 29.9 0.0
03 15:15 S 10 G 17 10.00 NULL NULL 71.6 59 65% 29.9 0.0
03 14:25 S 13 G 17 10.00 NULL NULL 71.6 59 65% 29.9 0.0
03 14:15 S 12 G 18 10.00 NULL NULL 71.6 59 65% 29.91 0.0
03 13:05 S 13 G 17 10.00 NULL NULL 71.6 59 65% 29.93 0.0
03 12:55 SW 12 G 18 10.00 NULL NULL 71.6 59 65% 29.93 0.0
03 12:25 S 16 G 22 10.00 NULL NULL 71.6 59 65% 29.94 0.0
03 12:15 SW 13 G 17 10.00 NULL NULL 69.8 59 69% 29.94 0.0
03 11:50 S 12 10.00 NULL NULL 69.8 59 69% 29.95 0.0
03 11:35 S 10 10.00 NULL NULL 68 59 73% 29.96 0.0
03 11:15 S 12 10.00 NULL NULL 68 59 73% 29.96 0.0
03 10:55 S 10 10.00 NULL NULL 68 59 73% 29.96 0.0
03 10:35 S 9 10.00 NULL NULL 66.2 59 78% 29.96 0.0
03 10:15 S 12 G 20 10.00 NULL NULL 66.2 59 78% 29.96 0.0
03 09:55 S 14 G 18 10.00 NULL NULL 66.2 59 78% 29.96 0.0
03 09:35 S 12 G 18 10.00 NULL NULL 66.2 59 78% 29.96 0.0
03 09:15 S 10 G 16 10.00 NULL NULL 66.2 59 78% 29.96 0.0
03 08:55 S 13 10.00 NULL NULL 66.2 59 78% 29.97 0.0
03 08:35 SW 8 G 17 10.00 NULL NULL 64.4 59 83% 29.97 0.0
03 08:15 S 8 10.00 NULL NULL 66.2 59 78% 29.97 0.0
03 07:55 S 8 10.00 NULL NULL 66.2 59 78% 29.96 0.0
03 07:35 S 8 10.00 NULL NULL 64.4 59 83% 29.97 0.0
03 07:15 SW 8 10.00 NULL NULL 62.6 59 88% 29.96 0.0
03 06:55 S 6 10.00 NULL NULL 62.6 59 88% 29.96 0.0
03 06:35 S 7 10.00 NULL NULL 62.6 59 88% 29.96 0.0
03 06:15 Calm 10.00 NULL NULL 62.6 59 88% 29.96 0.0
03 05:55 S 3 10.00 NULL NULL 60.8 57.2 88% 29.96 0.0
03 05:35 SW 3 10.00 NULL NULL 60.8 57.2 88% 29.96 0.0
03 04:55 S 8 10.00 NULL NULL 60.8 55.4 83% 29.97 0.0
03 04:35 Calm 10.00 NULL NULL 60.8 55.4 83% 29.97 0.0
03 04:15 Calm 10.00 NULL NULL 62.6 55.4 77% 29.98 0.0
03 03:55 Calm 10.00 NULL NULL 62.6 55.4 77% 29.98 0.0
03 03:35 SW 5 10.00 NULL NULL 60.8 55.4 83% 29.97 0.0
03 03:15 SW 7 10.00 NULL NULL 60.8 55.4 83% 29.98 0.0
03 02:55 Calm 10.00 NULL NULL 60.8 55.4 83% 29.98 0.0
03 02:35 SW 3 10.00 NULL NULL 59 57.2 94% 29.98 0.0
03 02:15 Calm 10.00 NULL NULL 59 55.4 88% 29.99 0.0
03 01:55 S 7 10.00 NULL NULL 59 55.4 88% 29.99 0.0
03 01:35 S 6 10.00 NULL NULL 59 55.4 88% 29.99 0.0
03 01:15 S 7 10.00 NULL NULL 60.8 53.6 77% 29.99 0.0
03 00:55 Calm 10.00 NULL NULL 60.8 55.4 83% 29.99 0.0
03 00:35 Calm 10.00 NULL NULL 60.8 53.6 77% 29.98 0.0
03 00:15 S 3 10.00 NULL NULL 60.8 53.6 77% 29.98 0.0
02 23:55 Calm 10.00 NULL NULL 62.6 51.8 68% 29.99 0.0
02 23:35 S 6 10.00 NULL NULL 62.6 50 64% 29.99 0.0
02 23:15 S 5 10.00 NULL NULL 62.6 50 64% 29.99 0.0
02 22:55 S 6 10.00 NULL NULL 62.6 50 64% 29.99 0.0
02 22:35 Calm 10.00 NULL NULL 64.4 48.2 56% 29.99 0.0
02 22:15 S 7 10.00 NULL NULL 64.4 50 60% 29.99 0.0
02 21:55 SE 3 10.00 NULL NULL 64.4 50 60% 30 0.0
02 21:35 S 3 10.00 NULL NULL 64.4 50 60% 29.99 0.0
02 21:15 Calm 10.00 NULL NULL 64.4 50 60% 29.99 0.0
02 20:55 S 3 10.00 NULL NULL 66.2 51.8 60% 29.98 0.0
Date Time (pdt) Wind (mph) Vis. (mi.) Weather Sky Cond. Air Dwpt Max. Min. Relative Humidity Wind Chill (°F) Heat Index (°F) altimeter (in) sea level (mb) 1 hr 3 hr 6 hr
6 hour
Temperature (ºF) Pressure Precipitation (in)